Prospect Heights, Colorado
Current Conditions -  °F | °C
As of 6:25 AM on Monday 22 Dec 2014 (Local Time) from K1V6 Reporting Station
Scattered Clouds Scattered Clouds  
Wind Chill: 34°   Ceiling: Unl
Heat Index: 34°   Visibility: 10mi
Dew Point: 32°   Wind: 0mph
Humidity: 93%   Direction: NA
Pressure: 29.77"   Gusts: NA
Location:  38.533°N, 105.389°W
Report Text: K1V6 221325Z AUTO 00000KT 10SM SCT070 SCT080 01/00 A2977 RMK AO2
Loading
Personal Weather Stations






























Interactive Weather Map New forecast layout! Learn more

10-Day Weather Forecast

Advertisements
Track Severe Weather on mobile